sensor_id;sensor_type;location;lat;lon;timestamp;temperature;humidity
17483;DHT22;8858;52.308;20.994;2023-07-31T00:00:40;20.70;99.90
17483;DHT22;8858;52.308;20.994;2023-07-31T00:03:08;20.70;99.90
17483;DHT22;8858;52.308;20.994;2023-07-31T00:05:38;20.70;99.90
17483;DHT22;8858;52.308;20.994;2023-07-31T00:08:06;20.70;99.90
17483;DHT22;8858;52.308;20.994;2023-07-31T00:10:34;20.70;99.90
17483;DHT22;8858;52.308;20.994;2023-07-31T00:13:03;20.80;99.90
17483;DHT22;8858;52.308;20.994;2023-07-31T00:15:36;20.80;99.90
17483;DHT22;8858;52.308;20.994;2023-07-31T00:18:06;20.80;99.90
17483;DHT22;8858;52.308;20.994;2023-07-31T00:20:34;20.80;99.90
17483;DHT22;8858;52.308;20.994;2023-07-31T00:23:02;20.80;99.90
17483;DHT22;8858;52.308;20.994;2023-07-31T00:25:31;20.80;99.90
17483;DHT22;8858;52.308;20.994;2023-07-31T00:27:59;20.80;99.90
17483;DHT22;8858;52.308;20.994;2023-07-31T00:30:30;20.80;99.90
17483;DHT22;8858;52.308;20.994;2023-07-31T00:33:00;20.70;99.90
17483;DHT22;8858;52.308;20.994;2023-07-31T00:35:30;20.70;99.90
17483;DHT22;8858;52.308;20.994;2023-07-31T00:38:00;20.70;99.90
17483;DHT22;8858;52.308;20.994;2023-07-31T00:40:28;20.70;99.90
17483;DHT22;8858;52.308;20.994;2023-07-31T00:42:58;20.70;99.90
17483;DHT22;8858;52.308;20.994;2023-07-31T00:45:29;20.60;99.90
17483;DHT22;8858;52.308;20.994;2023-07-31T00:47:57;20.60;99.90
17483;DHT22;8858;52.308;20.994;2023-07-31T00:50:27;20.60;99.90
17483;DHT22;8858;52.308;20.994;2023-07-31T00:52:59;20.50;99.90
17483;DHT22;8858;52.308;20.994;2023-07-31T00:55:26;20.40;99.90
17483;DHT22;8858;52.308;20.994;2023-07-31T00:57:55;20.30;99.90
17483;DHT22;8858;52.308;20.994;2023-07-31T01:00:26;20.20;99.90
17483;DHT22;8858;52.308;20.994;2023-07-31T01:02:54;20.20;99.90
17483;DHT22;8858;52.308;20.994;2023-07-31T01:05:29;20.10;99.90
17483;DHT22;8858;52.308;20.994;2023-07-31T01:08:05;20.10;99.90
17483;DHT22;8858;52.308;20.994;2023-07-31T01:10:41;20.00;99.90
17483;DHT22;8858;52.308;20.994;2023-07-31T01:13:13;20.00;99.90
17483;DHT22;8858;52.308;20.994;2023-07-31T01:15:42;19.90;99.90
17483;DHT22;8858;52.308;20.994;2023-07-31T01:18:11;19.80;99.90
17483;DHT22;8858;52.308;20.994;2023-07-31T01:20:42;19.80;99.90
17483;DHT22;8858;52.308;20.994;2023-07-31T01:23:32;19.80;99.90
17483;DHT22;8858;52.308;20.994;2023-07-31T01:26:12;19.70;99.90
17483;DHT22;8858;52.308;20.994;2023-07-31T01:28:47;19.70;99.90
17483;DHT22;8858;52.308;20.994;2023-07-31T01:31:23;19.60;99.90
17483;DHT22;8858;52.308;20.994;2023-07-31T01:33:56;19.60;99.90
17483;DHT22;8858;52.308;20.994;2023-07-31T01:36:30;19.60;99.90
17483;DHT22;8858;52.308;20.994;2023-07-31T01:38:59;19.60;99.90
17483;DHT22;8858;52.308;20.994;2023-07-31T01:41:29;19.70;99.90
17483;DHT22;8858;52.308;20.994;2023-07-31T01:43:58;19.70;99.90
17483;DHT22;8858;52.308;20.994;2023-07-31T01:46:26;19.70;99.90
17483;DHT22;8858;52.308;20.994;2023-07-31T01:48:58;19.70;99.90
17483;DHT22;8858;52.308;20.994;2023-07-31T01:51:27;19.70;99.90
17483;DHT22;8858;52.308;20.994;2023-07-31T01:53:56;19.70;99.90
17483;DHT22;8858;52.308;20.994;2023-07-31T01:56:25;19.70;99.90
17483;DHT22;8858;52.308;20.994;2023-07-31T01:58:54;19.70;99.90
17483;DHT22;8858;52.308;20.994;2023-07-31T02:01:26;19.70;99.90
17483;DHT22;8858;52.308;20.994;2023-07-31T02:03:54;19.70;99.90
17483;DHT22;8858;52.308;20.994;2023-07-31T02:06:25;19.70;99.90
17483;DHT22;8858;52.308;20.994;2023-07-31T02:08:54;19.70;99.90
17483;DHT22;8858;52.308;20.994;2023-07-31T02:11:24;19.60;99.90
17483;DHT22;8858;52.308;20.994;2023-07-31T02:13:53;19.50;99.90
17483;DHT22;8858;52.308;20.994;2023-07-31T02:16:22;19.60;99.90
17483;DHT22;8858;52.308;20.994;2023-07-31T02:18:50;19.50;99.90
17483;DHT22;8858;52.308;20.994;2023-07-31T02:21:19;19.50;99.90
17483;DHT22;8858;52.308;20.994;2023-07-31T02:23:47;19.40;99.90
17483;DHT22;8858;52.308;20.994;2023-07-31T02:26:16;19.40;99.90
17483;DHT22;8858;52.308;20.994;2023-07-31T02:28:44;19.30;99.90
17483;DHT22;8858;52.308;20.994;2023-07-31T02:31:14;19.30;99.90
17483;DHT22;8858;52.308;20.994;2023-07-31T02:33:45;19.20;99.90
17483;DHT22;8858;52.308;20.994;2023-07-31T02:36:13;19.20;99.90
17483;DHT22;8858;52.308;20.994;2023-07-31T02:38:42;19.20;99.90
17483;DHT22;8858;52.308;20.994;2023-07-31T02:41:10;19.10;99.90
17483;DHT22;8858;52.308;20.994;2023-07-31T02:43:38;19.10;99.90
17483;DHT22;8858;52.308;20.994;2023-07-31T02:46:09;19.10;99.90
17483;DHT22;8858;52.308;20.994;2023-07-31T02:48:40;19.10;99.90
17483;DHT22;8858;52.308;20.994;2023-07-31T02:51:09;19.10;99.90
17483;DHT22;8858;52.308;20.994;2023-07-31T02:53:38;19.20;99.90
17483;DHT22;8858;52.308;20.994;2023-07-31T02:56:07;19.10;99.90
17483;DHT22;8858;52.308;20.994;2023-07-31T02:58:35;19.10;99.90
17483;DHT22;8858;52.308;20.994;2023-07-31T03:01:04;19.20;99.90
17483;DHT22;8858;52.308;20.994;2023-07-31T03:03:33;19.10;99.90
17483;DHT22;8858;52.308;20.994;2023-07-31T03:06:03;19.10;99.90
17483;DHT22;8858;52.308;20.994;2023-07-31T03:08:31;19.00;99.90
17483;DHT22;8858;52.308;20.994;2023-07-31T03:11:01;19.00;99.90
17483;DHT22;8858;52.308;20.994;2023-07-31T03:13:29;18.90;99.90
17483;DHT22;8858;52.308;20.994;2023-07-31T03:16:22;18.90;99.90
17483;DHT22;8858;52.308;20.994;2023-07-31T03:18:51;18.90;99.90
17483;DHT22;8858;52.308;20.994;2023-07-31T03:21:20;18.90;99.90
17483;DHT22;8858;52.308;20.994;2023-07-31T03:23:49;18.90;99.90
17483;DHT22;8858;52.308;20.994;2023-07-31T03:26:21;18.90;99.90
17483;DHT22;8858;52.308;20.994;2023-07-31T03:28:51;18.80;99.90
17483;DHT22;8858;52.308;20.994;2023-07-31T03:31:20;18.90;99.90
17483;DHT22;8858;52.308;20.994;2023-07-31T03:33:48;18.80;99.90
17483;DHT22;8858;52.308;20.994;2023-07-31T03:36:16;18.80;99.90
17483;DHT22;8858;52.308;20.994;2023-07-31T03:38:46;18.70;99.90
17483;DHT22;8858;52.308;20.994;2023-07-31T03:41:15;18.70;99.90
17483;DHT22;8858;52.308;20.994;2023-07-31T03:43:45;18.70;99.90
17483;DHT22;8858;52.308;20.994;2023-07-31T03:46:14;18.60;99.90
17483;DHT22;8858;52.308;20.994;2023-07-31T03:48:42;18.60;99.90
17483;DHT22;8858;52.308;20.994;2023-07-31T03:51:11;18.60;99.90
17483;DHT22;8858;52.308;20.994;2023-07-31T03:53:40;18.50;99.90
17483;DHT22;8858;52.308;20.994;2023-07-31T03:56:10;18.60;99.90
17483;DHT22;8858;52.308;20.994;2023-07-31T03:58:40;18.60;99.90
17483;DHT22;8858;52.308;20.994;2023-07-31T04:01:08;18.50;99.90
17483;DHT22;8858;52.308;20.994;2023-07-31T04:03:37;18.50;99.90
17483;DHT22;8858;52.308;20.994;2023-07-31T04:06:06;18.50;99.90
17483;DHT22;8858;52.308;20.994;2023-07-31T04:08:35;18.50;99.90
17483;DHT22;8858;52.308;20.994;2023-07-31T04:11:05;18.50;99.90
17483;DHT22;8858;52.308;20.994;2023-07-31T04:13:36;18.60;99.90
17483;DHT22;8858;52.308;20.994;2023-07-31T04:16:04;18.60;99.90
17483;DHT22;8858;52.308;20.994;2023-07-31T04:18:34;18.60;99.90
17483;DHT22;8858;52.308;20.994;2023-07-31T04:21:03;18.50;99.90
17483;DHT22;8858;52.308;20.994;2023-07-31T04:23:32;18.50;99.90
17483;DHT22;8858;52.308;20.994;2023-07-31T04:26:00;18.50;99.90
17483;DHT22;8858;52.308;20.994;2023-07-31T04:28:28;18.50;99.90
17483;DHT22;8858;52.308;20.994;2023-07-31T04:31:03;18.50;99.90
17483;DHT22;8858;52.308;20.994;2023-07-31T04:33:36;18.50;99.90
17483;DHT22;8858;52.308;20.994;2023-07-31T04:36:05;18.50;99.90
17483;DHT22;8858;52.308;20.994;2023-07-31T04:38:33;18.50;99.90
17483;DHT22;8858;52.308;20.994;2023-07-31T04:41:01;18.50;99.90
17483;DHT22;8858;52.308;20.994;2023-07-31T04:43:31;18.50;99.90
17483;DHT22;8858;52.308;20.994;2023-07-31T04:46:00;18.50;99.90
17483;DHT22;8858;52.308;20.994;2023-07-31T04:48:29;18.50;99.90
17483;DHT22;8858;52.308;20.994;2023-07-31T04:50:58;18.50;99.90
17483;DHT22;8858;52.308;20.994;2023-07-31T04:53:26;18.40;99.90
17483;DHT22;8858;52.308;20.994;2023-07-31T04:55:56;18.40;99.90
17483;DHT22;8858;52.308;20.994;2023-07-31T04:58:24;18.40;99.90
17483;DHT22;8858;52.308;20.994;2023-07-31T05:00:52;18.50;99.90
17483;DHT22;8858;52.308;20.994;2023-07-31T05:03:21;18.50;99.90
17483;DHT22;8858;52.308;20.994;2023-07-31T05:05:51;18.50;99.90
17483;DHT22;8858;52.308;20.994;2023-07-31T05:08:22;18.50;99.90
17483;DHT22;8858;52.308;20.994;2023-07-31T05:10:50;18.60;99.90
17483;DHT22;8858;52.308;20.994;2023-07-31T05:13:18;18.60;99.90
17483;DHT22;8858;52.308;20.994;2023-07-31T05:15:49;18.60;99.90
17483;DHT22;8858;52.308;20.994;2023-07-31T05:18:18;18.60;99.90
17483;DHT22;8858;52.308;20.994;2023-07-31T05:20:46;18.60;99.90
17483;DHT22;8858;52.308;20.994;2023-07-31T05:23:15;18.60;99.90
17483;DHT22;8858;52.308;20.994;2023-07-31T05:25:44;18.60;99.90
17483;DHT22;8858;52.308;20.994;2023-07-31T05:28:12;18.50;99.90
17483;DHT22;8858;52.308;20.994;2023-07-31T05:30:40;18.50;99.90
17483;DHT22;8858;52.308;20.994;2023-07-31T05:33:08;18.50;99.90
17483;DHT22;8858;52.308;20.994;2023-07-31T05:35:40;18.60;99.90
17483;DHT22;8858;52.308;20.994;2023-07-31T05:38:08;18.50;99.90
17483;DHT22;8858;52.308;20.994;2023-07-31T05:40:40;18.50;99.90
17483;DHT22;8858;52.308;20.994;2023-07-31T05:43:10;18.50;99.90
17483;DHT22;8858;52.308;20.994;2023-07-31T05:45:41;18.50;99.90
17483;DHT22;8858;52.308;20.994;2023-07-31T05:48:09;18.50;99.90
17483;DHT22;8858;52.308;20.994;2023-07-31T05:50:38;18.50;99.90
17483;DHT22;8858;52.308;20.994;2023-07-31T05:53:08;18.50;99.90
17483;DHT22;8858;52.308;20.994;2023-07-31T05:55:37;18.60;99.90
17483;DHT22;8858;52.308;20.994;2023-07-31T05:58:07;18.60;99.90
17483;DHT22;8858;52.308;20.994;2023-07-31T06:00:36;18.60;99.90
17483;DHT22;8858;52.308;20.994;2023-07-31T06:03:05;18.60;99.90
17483;DHT22;8858;52.308;20.994;2023-07-31T06:05:36;18.60;99.90
17483;DHT22;8858;52.308;20.994;2023-07-31T06:08:04;18.60;99.90
17483;DHT22;8858;52.308;20.994;2023-07-31T06:10:33;18.60;99.90
17483;DHT22;8858;52.308;20.994;2023-07-31T06:13:02;18.60;99.90
17483;DHT22;8858;52.308;20.994;2023-07-31T06:15:32;18.60;99.90
17483;DHT22;8858;52.308;20.994;2023-07-31T06:18:04;18.60;99.90
17483;DHT22;8858;52.308;20.994;2023-07-31T06:20:34;18.60;99.90
17483;DHT22;8858;52.308;20.994;2023-07-31T06:23:03;18.60;99.90
17483;DHT22;8858;52.308;20.994;2023-07-31T06:25:31;18.60;99.90
17483;DHT22;8858;52.308;20.994;2023-07-31T06:27:59;18.60;99.90
17483;DHT22;8858;52.308;20.994;2023-07-31T06:30:27;18.60;99.90
17483;DHT22;8858;52.308;20.994;2023-07-31T06:32:57;18.60;99.90
17483;DHT22;8858;52.308;20.994;2023-07-31T06:35:26;18.50;99.90
17483;DHT22;8858;52.308;20.994;2023-07-31T06:37:58;18.50;99.90
17483;DHT22;8858;52.308;20.994;2023-07-31T06:40:26;18.50;99.90
17483;DHT22;8858;52.308;20.994;2023-07-31T06:42:55;18.50;99.90
17483;DHT22;8858;52.308;20.994;2023-07-31T06:45:24;18.50;99.90
17483;DHT22;8858;52.308;20.994;2023-07-31T06:47:52;18.50;99.90
17483;DHT22;8858;52.308;20.994;2023-07-31T06:50:22;18.50;99.90
17483;DHT22;8858;52.308;20.994;2023-07-31T06:52:50;18.50;99.90
17483;DHT22;8858;52.308;20.994;2023-07-31T06:55:20;18.50;99.90
17483;DHT22;8858;52.308;20.994;2023-07-31T06:57:51;18.50;99.90
17483;DHT22;8858;52.308;20.994;2023-07-31T07:00:20;18.50;99.90
17483;DHT22;8858;52.308;20.994;2023-07-31T07:02:53;18.50;99.90
17483;DHT22;8858;52.308;20.994;2023-07-31T07:05:24;18.60;99.90
17483;DHT22;8858;52.308;20.994;2023-07-31T07:07:52;18.60;99.90
17483;DHT22;8858;52.308;20.994;2023-07-31T07:10:21;18.60;99.90
17483;DHT22;8858;52.308;20.994;2023-07-31T07:12:51;18.60;99.90
17483;DHT22;8858;52.308;20.994;2023-07-31T07:15:23;18.60;99.90
17483;DHT22;8858;52.308;20.994;2023-07-31T07:17:51;18.60;99.90
17483;DHT22;8858;52.308;20.994;2023-07-31T07:20:19;18.60;99.90
17483;DHT22;8858;52.308;20.994;2023-07-31T07:22:49;18.70;99.90
17483;DHT22;8858;52.308;20.994;2023-07-31T07:25:18;18.70;99.90
17483;DHT22;8858;52.308;20.994;2023-07-31T07:27:46;18.80;99.90
17483;DHT22;8858;52.308;20.994;2023-07-31T07:30:15;18.80;99.90
17483;DHT22;8858;52.308;20.994;2023-07-31T07:32:47;18.90;99.90
17483;DHT22;8858;52.308;20.994;2023-07-31T07:35:15;18.90;99.90
17483;DHT22;8858;52.308;20.994;2023-07-31T07:37:49;19.00;99.90
17483;DHT22;8858;52.308;20.994;2023-07-31T07:40:19;19.00;99.90
17483;DHT22;8858;52.308;20.994;2023-07-31T07:42:47;19.10;99.90
17483;DHT22;8858;52.308;20.994;2023-07-31T07:45:15;19.20;99.90
17483;DHT22;8858;52.308;20.994;2023-07-31T07:47:44;19.20;99.90
17483;DHT22;8858;52.308;20.994;2023-07-31T07:50:12;19.30;99.90
17483;DHT22;8858;52.308;20.994;2023-07-31T07:52:45;19.40;99.90
17483;DHT22;8858;52.308;20.994;2023-07-31T07:55:15;19.50;99.90
17483;DHT22;8858;52.308;20.994;2023-07-31T07:57:43;19.60;99.90
17483;DHT22;8858;52.308;20.994;2023-07-31T08:00:12;19.60;99.90
17483;DHT22;8858;52.308;20.994;2023-07-31T08:02:42;19.70;99.90
17483;DHT22;8858;52.308;20.994;2023-07-31T08:05:10;19.80;99.90
17483;DHT22;8858;52.308;20.994;2023-07-31T08:07:38;19.80;99.90
17483;DHT22;8858;52.308;20.994;2023-07-31T08:10:08;19.90;99.90
17483;DHT22;8858;52.308;20.994;2023-07-31T08:12:38;20.00;99.90
17483;DHT22;8858;52.308;20.994;2023-07-31T08:15:07;20.00;99.90
17483;DHT22;8858;52.308;20.994;2023-07-31T08:17:37;20.10;99.90
17483;DHT22;8858;52.308;20.994;2023-07-31T08:20:06;20.20;99.90
17483;DHT22;8858;52.308;20.994;2023-07-31T08:22:35;20.20;99.90
17483;DHT22;8858;52.308;20.994;2023-07-31T08:25:04;20.30;99.90
17483;DHT22;8858;52.308;20.994;2023-07-31T08:27:33;20.40;99.90
17483;DHT22;8858;52.308;20.994;2023-07-31T08:30:06;20.50;99.90
17483;DHT22;8858;52.308;20.994;2023-07-31T08:32:35;20.50;99.90
17483;DHT22;8858;52.308;20.994;2023-07-31T08:35:05;20.60;99.90
17483;DHT22;8858;52.308;20.994;2023-07-31T08:37:33;20.60;99.90
17483;DHT22;8858;52.308;20.994;2023-07-31T08:40:02;20.70;99.90
17483;DHT22;8858;52.308;20.994;2023-07-31T08:42:32;20.80;99.90
17483;DHT22;8858;52.308;20.994;2023-07-31T08:45:03;20.80;99.90
17483;DHT22;8858;52.308;20.994;2023-07-31T08:47:34;20.90;99.90
17483;DHT22;8858;52.308;20.994;2023-07-31T08:50:05;20.90;99.90
17483;DHT22;8858;52.308;20.994;2023-07-31T08:52:58;20.90;99.90
17483;DHT22;8858;52.308;20.994;2023-07-31T08:55:27;20.90;99.90
17483;DHT22;8858;52.308;20.994;2023-07-31T08:58:04;21.00;99.90
17483;DHT22;8858;52.308;20.994;2023-07-31T09:00:32;21.00;99.90
17483;DHT22;8858;52.308;20.994;2023-07-31T09:03:09;21.00;99.90
17483;DHT22;8858;52.308;20.994;2023-07-31T09:05:39;21.10;99.90
17483;DHT22;8858;52.308;20.994;2023-07-31T09:08:09;21.20;99.90
17483;DHT22;8858;52.308;20.994;2023-07-31T09:10:41;21.30;99.90
17483;DHT22;8858;52.308;20.994;2023-07-31T09:13:09;21.30;99.90
17483;DHT22;8858;52.308;20.994;2023-07-31T09:15:39;21.30;99.90
17483;DHT22;8858;52.308;20.994;2023-07-31T09:18:09;21.40;99.90
17483;DHT22;8858;52.308;20.994;2023-07-31T09:20:40;21.40;99.90
17483;DHT22;8858;52.308;20.994;2023-07-31T09:23:11;21.50;99.90
17483;DHT22;8858;52.308;20.994;2023-07-31T09:25:43;21.50;99.90
17483;DHT22;8858;52.308;20.994;2023-07-31T09:28:12;21.60;99.90
17483;DHT22;8858;52.308;20.994;2023-07-31T09:30:48;21.60;99.90
17483;DHT22;8858;52.308;20.994;2023-07-31T09:33:19;21.70;99.90
17483;DHT22;8858;52.308;20.994;2023-07-31T09:35:47;21.70;99.90
17483;DHT22;8858;52.308;20.994;2023-07-31T09:38:16;21.80;99.90
17483;DHT22;8858;52.308;20.994;2023-07-31T09:40:45;21.80;99.90
17483;DHT22;8858;52.308;20.994;2023-07-31T09:43:18;21.90;99.90
17483;DHT22;8858;52.308;20.994;2023-07-31T09:45:47;22.00;99.90
17483;DHT22;8858;52.308;20.994;2023-07-31T09:48:18;22.00;99.90
17483;DHT22;8858;52.308;20.994;2023-07-31T09:50:50;22.00;99.90
17483;DHT22;8858;52.308;20.994;2023-07-31T09:53:18;22.00;99.90
17483;DHT22;8858;52.308;20.994;2023-07-31T09:55:46;22.00;99.90
17483;DHT22;8858;52.308;20.994;2023-07-31T09:58:14;22.00;99.90
17483;DHT22;8858;52.308;20.994;2023-07-31T10:00:43;22.00;99.90
17483;DHT22;8858;52.308;20.994;2023-07-31T10:03:13;22.00;99.90
17483;DHT22;8858;52.308;20.994;2023-07-31T10:05:47;22.10;99.90
17483;DHT22;8858;52.308;20.994;2023-07-31T10:08:21;22.00;99.90
17483;DHT22;8858;52.308;20.994;2023-07-31T10:10:52;22.00;99.90
17483;DHT22;8858;52.308;20.994;2023-07-31T10:13:20;22.10;99.90
17483;DHT22;8858;52.308;20.994;2023-07-31T10:15:50;22.10;99.90
17483;DHT22;8858;52.308;20.994;2023-07-31T10:18:20;22.10;99.90
17483;DHT22;8858;52.308;20.994;2023-07-31T10:20:55;22.10;99.90
17483;DHT22;8858;52.308;20.994;2023-07-31T10:23:24;22.20;99.90
17483;DHT22;8858;52.308;20.994;2023-07-31T10:25:57;22.20;99.90
17483;DHT22;8858;52.308;20.994;2023-07-31T10:28:28;22.20;99.90
17483;DHT22;8858;52.308;20.994;2023-07-31T10:30:57;22.20;99.90
17483;DHT22;8858;52.308;20.994;2023-07-31T10:33:26;22.30;99.90
17483;DHT22;8858;52.308;20.994;2023-07-31T10:36:14;22.30;99.90
17483;DHT22;8858;52.308;20.994;2023-07-31T10:38:43;22.40;99.90
17483;DHT22;8858;52.308;20.994;2023-07-31T10:41:12;22.40;99.90
17483;DHT22;8858;52.308;20.994;2023-07-31T10:43:40;22.40;99.90
17483;DHT22;8858;52.308;20.994;2023-07-31T10:46:09;22.40;99.90
17483;DHT22;8858;52.308;20.994;2023-07-31T10:48:41;22.40;99.90
17483;DHT22;8858;52.308;20.994;2023-07-31T10:51:11;22.40;99.90
17483;DHT22;8858;52.308;20.994;2023-07-31T10:53:41;22.40;99.90
17483;DHT22;8858;52.308;20.994;2023-07-31T10:56:10;22.40;99.90
17483;DHT22;8858;52.308;20.994;2023-07-31T10:58:44;22.50;99.90
17483;DHT22;8858;52.308;20.994;2023-07-31T11:01:15;22.50;99.90
17483;DHT22;8858;52.308;20.994;2023-07-31T11:03:45;22.60;99.90
17483;DHT22;8858;52.308;20.994;2023-07-31T11:06:17;22.60;99.90
17483;DHT22;8858;52.308;20.994;2023-07-31T11:08:48;22.60;99.90
17483;DHT22;8858;52.308;20.994;2023-07-31T11:11:17;22.70;99.90
17483;DHT22;8858;52.308;20.994;2023-07-31T11:13:49;22.70;99.90
17483;DHT22;8858;52.308;20.994;2023-07-31T11:16:20;22.70;99.90
17483;DHT22;8858;52.308;20.994;2023-07-31T11:18:52;22.80;99.90
17483;DHT22;8858;52.308;20.994;2023-07-31T11:21:28;22.80;99.90
17483;DHT22;8858;52.308;20.994;2023-07-31T11:24:00;22.80;99.90
17483;DHT22;8858;52.308;20.994;2023-07-31T11:26:29;22.90;99.90
17483;DHT22;8858;52.308;20.994;2023-07-31T11:29:00;22.90;99.90
17483;DHT22;8858;52.308;20.994;2023-07-31T11:31:28;22.90;99.90
17483;DHT22;8858;52.308;20.994;2023-07-31T11:34:04;22.90;99.90
17483;DHT22;8858;52.308;20.994;2023-07-31T11:36:33;22.90;99.90
17483;DHT22;8858;52.308;20.994;2023-07-31T11:39:07;22.90;99.90
17483;DHT22;8858;52.308;20.994;2023-07-31T11:41:35;22.90;99.90
17483;DHT22;8858;52.308;20.994;2023-07-31T11:44:04;22.90;99.90
17483;DHT22;8858;52.308;20.994;2023-07-31T11:46:51;22.90;99.90
17483;DHT22;8858;52.308;20.994;2023-07-31T11:49:21;22.90;99.90
17483;DHT22;8858;52.308;20.994;2023-07-31T11:51:49;23.00;99.90
17483;DHT22;8858;52.308;20.994;2023-07-31T11:54:19;23.00;99.90
17483;DHT22;8858;52.308;20.994;2023-07-31T11:56:48;23.00;99.90
17483;DHT22;8858;52.308;20.994;2023-07-31T11:59:17;23.00;99.90
17483;DHT22;8858;52.308;20.994;2023-07-31T12:01:46;23.00;99.90
17483;DHT22;8858;52.308;20.994;2023-07-31T12:04:19;23.10;99.90
17483;DHT22;8858;52.308;20.994;2023-07-31T12:06:48;23.10;99.90
17483;DHT22;8858;52.308;20.994;2023-07-31T12:09:18;23.10;99.90
17483;DHT22;8858;52.308;20.994;2023-07-31T12:11:47;23.20;99.90
17483;DHT22;8858;52.308;20.994;2023-07-31T12:14:20;23.20;99.90
17483;DHT22;8858;52.308;20.994;2023-07-31T12:16:53;23.20;99.90
17483;DHT22;8858;52.308;20.994;2023-07-31T12:19:23;23.20;99.90
17483;DHT22;8858;52.308;20.994;2023-07-31T12:21:55;23.20;99.90
17483;DHT22;8858;52.308;20.994;2023-07-31T12:24:26;23.30;99.90
17483;DHT22;8858;52.308;20.994;2023-07-31T12:26:56;23.30;99.90
17483;DHT22;8858;52.308;20.994;2023-07-31T12:29:33;23.30;99.90
17483;DHT22;8858;52.308;20.994;2023-07-31T12:32:20;23.20;99.90
17483;DHT22;8858;52.308;20.994;2023-07-31T12:34:48;23.20;99.90
17483;DHT22;8858;52.308;20.994;2023-07-31T12:37:20;23.20;99.90
17483;DHT22;8858;52.308;20.994;2023-07-31T12:39:51;23.20;99.90
17483;DHT22;8858;52.308;20.994;2023-07-31T12:42:25;23.20;99.90
17483;DHT22;8858;52.308;20.994;2023-07-31T12:44:55;23.20;99.90
17483;DHT22;8858;52.308;20.994;2023-07-31T12:47:23;23.30;99.90
17483;DHT22;8858;52.308;20.994;2023-07-31T12:49:51;23.30;99.90
17483;DHT22;8858;52.308;20.994;2023-07-31T12:52:19;23.30;99.90
17483;DHT22;8858;52.308;20.994;2023-07-31T12:54:55;23.30;99.90
17483;DHT22;8858;52.308;20.994;2023-07-31T12:57:23;23.30;99.90
17483;DHT22;8858;52.308;20.994;2023-07-31T12:59:52;23.30;99.90
17483;DHT22;8858;52.308;20.994;2023-07-31T13:02:20;23.40;99.90
17483;DHT22;8858;52.308;20.994;2023-07-31T13:04:52;23.50;99.90
17483;DHT22;8858;52.308;20.994;2023-07-31T13:07:22;23.60;99.90
17483;DHT22;8858;52.308;20.994;2023-07-31T13:09:50;23.70;99.90
17483;DHT22;8858;52.308;20.994;2023-07-31T13:12:19;23.80;99.90
17483;DHT22;8858;52.308;20.994;2023-07-31T13:14:48;23.90;99.90
17483;DHT22;8858;52.308;20.994;2023-07-31T13:17:19;24.00;99.90
17483;DHT22;8858;52.308;20.994;2023-07-31T13:19:48;24.20;99.90
17483;DHT22;8858;52.308;20.994;2023-07-31T13:22:16;24.40;99.90
17483;DHT22;8858;52.308;20.994;2023-07-31T13:24:44;24.50;99.90
17483;DHT22;8858;52.308;20.994;2023-07-31T13:27:12;24.70;99.90
17483;DHT22;8858;52.308;20.994;2023-07-31T13:29:44;24.80;99.90
17483;DHT22;8858;52.308;20.994;2023-07-31T13:32:18;24.90;99.90
17483;DHT22;8858;52.308;20.994;2023-07-31T13:34:48;24.90;99.90
17483;DHT22;8858;52.308;20.994;2023-07-31T13:37:16;25.00;99.90
17483;DHT22;8858;52.308;20.994;2023-07-31T13:39:44;25.00;99.90
17483;DHT22;8858;52.308;20.994;2023-07-31T13:42:13;25.00;99.90
17483;DHT22;8858;52.308;20.994;2023-07-31T13:44:43;25.00;99.90
17483;DHT22;8858;52.308;20.994;2023-07-31T13:47:11;24.90;99.90
17483;DHT22;8858;52.308;20.994;2023-07-31T13:49:40;24.90;99.90
17483;DHT22;8858;52.308;20.994;2023-07-31T13:52:10;24.80;99.90
17483;DHT22;8858;52.308;20.994;2023-07-31T13:54:38;24.80;99.90
17483;DHT22;8858;52.308;20.994;2023-07-31T13:57:08;24.80;99.90
17483;DHT22;8858;52.308;20.994;2023-07-31T13:59:37;24.80;99.90
17483;DHT22;8858;52.308;20.994;2023-07-31T14:02:07;24.80;99.90
17483;DHT22;8858;52.308;20.994;2023-07-31T14:04:36;24.80;99.90
17483;DHT22;8858;52.308;20.994;2023-07-31T14:07:04;24.90;99.90
17483;DHT22;8858;52.308;20.994;2023-07-31T14:09:37;25.00;99.90
17483;DHT22;8858;52.308;20.994;2023-07-31T14:12:05;25.20;99.90
17483;DHT22;8858;52.308;20.994;2023-07-31T14:14:34;25.20;99.90
17483;DHT22;8858;52.308;20.994;2023-07-31T14:17:03;25.20;99.90
17483;DHT22;8858;52.308;20.994;2023-07-31T14:19:33;25.20;99.90
17483;DHT22;8858;52.308;20.994;2023-07-31T14:22:05;25.10;99.90
17483;DHT22;8858;52.308;20.994;2023-07-31T14:24:37;25.00;99.90
17483;DHT22;8858;52.308;20.994;2023-07-31T14:27:06;24.90;99.90
17483;DHT22;8858;52.308;20.994;2023-07-31T14:29:35;24.80;99.90
17483;DHT22;8858;52.308;20.994;2023-07-31T14:32:03;24.70;99.90
17483;DHT22;8858;52.308;20.994;2023-07-31T14:34:35;24.60;99.90
17483;DHT22;8858;52.308;20.994;2023-07-31T14:37:04;24.60;99.90
17483;DHT22;8858;52.308;20.994;2023-07-31T14:39:32;24.50;99.90
17483;DHT22;8858;52.308;20.994;2023-07-31T14:42:00;24.40;99.90
17483;DHT22;8858;52.308;20.994;2023-07-31T14:44:29;24.30;99.90
17483;DHT22;8858;52.308;20.994;2023-07-31T14:47:01;24.30;99.90
17483;DHT22;8858;52.308;20.994;2023-07-31T14:49:30;24.30;99.90
17483;DHT22;8858;52.308;20.994;2023-07-31T14:51:59;24.20;99.90
17483;DHT22;8858;52.308;20.994;2023-07-31T14:54:27;24.40;99.90
17483;DHT22;8858;52.308;20.994;2023-07-31T14:56:56;24.50;99.90
17483;DHT22;8858;52.308;20.994;2023-07-31T14:59:24;24.60;99.90
17483;DHT22;8858;52.308;20.994;2023-07-31T15:01:53;24.80;99.90
17483;DHT22;8858;52.308;20.994;2023-07-31T15:04:21;24.90;99.90
17483;DHT22;8858;52.308;20.994;2023-07-31T15:06:53;24.80;99.90
17483;DHT22;8858;52.308;20.994;2023-07-31T15:09:23;24.70;99.90
17483;DHT22;8858;52.308;20.994;2023-07-31T15:11:51;24.70;99.90
17483;DHT22;8858;52.308;20.994;2023-07-31T15:14:20;24.50;99.90
17483;DHT22;8858;52.308;20.994;2023-07-31T15:16:49;24.40;99.90
17483;DHT22;8858;52.308;20.994;2023-07-31T15:19:17;24.30;99.90
17483;DHT22;8858;52.308;20.994;2023-07-31T15:21:46;24.20;99.90
17483;DHT22;8858;52.308;20.994;2023-07-31T15:24:15;24.10;99.90
17483;DHT22;8858;52.308;20.994;2023-07-31T15:26:44;24.00;99.90
17483;DHT22;8858;52.308;20.994;2023-07-31T15:29:13;24.10;99.90
17483;DHT22;8858;52.308;20.994;2023-07-31T15:31:49;24.00;99.90
17483;DHT22;8858;52.308;20.994;2023-07-31T15:34:18;23.90;99.90
17483;DHT22;8858;52.308;20.994;2023-07-31T15:36:48;23.90;99.90
17483;DHT22;8858;52.308;20.994;2023-07-31T15:39:16;23.90;99.90
17483;DHT22;8858;52.308;20.994;2023-07-31T15:41:46;23.90;99.90
17483;DHT22;8858;52.308;20.994;2023-07-31T15:44:18;23.80;99.90
17483;DHT22;8858;52.308;20.994;2023-07-31T15:46:49;23.80;99.90